sensor_id;sensor_type;location;lat;lon;timestamp;P1;durP1;ratioP1;P2;durP2;ratioP2
75435;SDS011;64014;53.432;14.534;2022-11-15T06:26:03;58.67;;;24.17;;
75435;SDS011;64014;53.432;14.534;2022-11-15T06:28:32;56.92;;;24.38;;
75435;SDS011;64014;53.432;14.534;2022-11-15T06:31:08;53.17;;;24.52;;
75435;SDS011;64014;53.432;14.534;2022-11-15T06:33:36;55.08;;;26.30;;
75435;SDS011;64014;53.432;14.534;2022-11-15T06:36:02;57.67;;;27.90;;
75435;SDS011;64014;53.432;14.534;2022-11-15T06:38:29;58.17;;;28.60;;
75435;SDS011;64014;53.432;14.534;2022-11-15T06:40:55;55.72;;;27.00;;
75435;SDS011;64014;53.432;14.534;2022-11-15T06:43:26;56.47;;;26.17;;
75435;SDS011;64014;53.432;14.534;2022-11-15T06:45:52;57.08;;;28.10;;
75435;SDS011;64014;53.432;14.534;2022-11-15T06:48:18;58.20;;;27.50;;
75435;SDS011;64014;53.432;14.534;2022-11-15T06:50:49;54.20;;;24.98;;
75435;SDS011;64014;53.432;14.534;2022-11-15T06:53:19;48.40;;;23.10;;
75435;SDS011;64014;53.432;14.534;2022-11-15T06:55:45;45.28;;;22.88;;
75435;SDS011;64014;53.432;14.534;2022-11-15T06:58:10;54.47;;;24.98;;
75435;SDS011;64014;53.432;14.534;2022-11-15T07:00:36;54.58;;;27.10;;
75435;SDS011;64014;53.432;14.534;2022-11-15T07:03:02;52.00;;;27.08;;
75435;SDS011;64014;53.432;14.534;2022-11-15T07:05:28;48.47;;;23.85;;
75435;SDS011;64014;53.432;14.534;2022-11-15T07:07:55;51.40;;;24.65;;
75435;SDS011;64014;53.432;14.534;2022-11-15T07:10:22;48.63;;;25.17;;
75435;SDS011;64014;53.432;14.534;2022-11-15T07:12:49;48.80;;;21.77;;
75435;SDS011;64014;53.432;14.534;2022-11-15T07:15:18;48.90;;;25.27;;
75435;SDS011;64014;53.432;14.534;2022-11-15T07:17:45;51.38;;;25.00;;
75435;SDS011;64014;53.432;14.534;2022-11-15T07:20:11;49.95;;;23.98;;
75435;SDS011;64014;53.432;14.534;2022-11-15T07:22:38;50.72;;;24.02;;
75435;SDS011;64014;53.432;14.534;2022-11-15T07:25:07;50.83;;;23.65;;
75435;SDS011;64014;53.432;14.534;2022-11-15T07:27:34;50.05;;;25.48;;
75435;SDS011;64014;53.432;14.534;2022-11-15T07:30:00;50.28;;;23.75;;
75435;SDS011;64014;53.432;14.534;2022-11-15T07:32:26;49.17;;;25.08;;
75435;SDS011;64014;53.432;14.534;2022-11-15T07:34:52;50.92;;;25.50;;
75435;SDS011;64014;53.432;14.534;2022-11-15T07:37:18;47.55;;;24.52;;
75435;SDS011;64014;53.432;14.534;2022-11-15T07:39:44;42.05;;;22.67;;
75435;SDS011;64014;53.432;14.534;2022-11-15T07:42:10;45.17;;;24.35;;
75435;SDS011;64014;53.432;14.534;2022-11-15T07:44:54;47.60;;;24.48;;
75435;SDS011;64014;53.432;14.534;2022-11-15T07:47:20;48.17;;;24.05;;
75435;SDS011;64014;53.432;14.534;2022-11-15T07:49:46;45.50;;;24.05;;
75435;SDS011;64014;53.432;14.534;2022-11-15T07:52:12;45.88;;;22.45;;
75435;SDS011;64014;53.432;14.534;2022-11-15T07:54:38;43.50;;;22.88;;
75435;SDS011;64014;53.432;14.534;2022-11-15T07:57:04;47.97;;;23.38;;
75435;SDS011;64014;53.432;14.534;2022-11-15T07:59:32;39.95;;;21.23;;
75435;SDS011;64014;53.432;14.534;2022-11-15T08:01:57;45.15;;;23.35;;
75435;SDS011;64014;53.432;14.534;2022-11-15T08:04:23;39.53;;;20.88;;
75435;SDS011;64014;53.432;14.534;2022-11-15T08:06:49;45.30;;;21.48;;
75435;SDS011;64014;53.432;14.534;2022-11-15T08:09:15;47.80;;;22.10;;
75435;SDS011;64014;53.432;14.534;2022-11-15T08:11:40;41.53;;;21.83;;
75435;SDS011;64014;53.432;14.534;2022-11-15T08:14:06;42.00;;;21.40;;
75435;SDS011;64014;53.432;14.534;2022-11-15T08:16:32;48.40;;;22.85;;
75435;SDS011;64014;53.432;14.534;2022-11-15T08:18:58;45.78;;;22.88;;
75435;SDS011;64014;53.432;14.534;2022-11-15T08:21:24;44.70;;;22.25;;
75435;SDS011;64014;53.432;14.534;2022-11-15T08:23:49;44.28;;;21.15;;
75435;SDS011;64014;53.432;14.534;2022-11-15T08:26:15;44.28;;;23.58;;
75435;SDS011;64014;53.432;14.534;2022-11-15T08:28:41;42.53;;;21.52;;
75435;SDS011;64014;53.432;14.534;2022-11-15T08:31:12;37.92;;;22.48;;
75435;SDS011;64014;53.432;14.534;2022-11-15T08:33:42;43.10;;;21.50;;
75435;SDS011;64014;53.432;14.534;2022-11-15T08:36:11;44.05;;;21.65;;
75435;SDS011;64014;53.432;14.534;2022-11-15T08:38:40;42.13;;;22.25;;
75435;SDS011;64014;53.432;14.534;2022-11-15T08:41:07;43.50;;;21.58;;
75435;SDS011;64014;53.432;14.534;2022-11-15T08:43:36;41.90;;;21.05;;
75435;SDS011;64014;53.432;14.534;2022-11-15T08:46:01;44.38;;;21.88;;
75435;SDS011;64014;53.432;14.534;2022-11-15T08:48:27;43.05;;;22.30;;
75435;SDS011;64014;53.432;14.534;2022-11-15T08:50:56;42.60;;;21.38;;
75435;SDS011;64014;53.432;14.534;2022-11-15T08:55:47;50.10;;;22.00;;
75435;SDS011;64014;53.432;14.534;2022-11-15T08:58:13;46.50;;;22.17;;
75435;SDS011;64014;53.432;14.534;2022-11-15T09:00:39;43.40;;;20.52;;
75435;SDS011;64014;53.432;14.534;2022-11-15T09:03:05;43.28;;;20.70;;
75435;SDS011;64014;53.432;14.534;2022-11-15T09:05:35;48.80;;;23.13;;
75435;SDS011;64014;53.432;14.534;2022-11-15T09:08:02;47.40;;;21.95;;
75435;SDS011;64014;53.432;14.534;2022-11-15T09:10:29;42.78;;;21.42;;
75435;SDS011;64014;53.432;14.534;2022-11-15T09:12:56;44.90;;;22.15;;
75435;SDS011;64014;53.432;14.534;2022-11-15T09:15:22;51.80;;;23.55;;
75435;SDS011;64014;53.432;14.534;2022-11-15T09:17:48;51.20;;;27.10;;
75435;SDS011;64014;53.432;14.534;2022-11-15T09:20:13;45.88;;;23.27;;
75435;SDS011;64014;53.432;14.534;2022-11-15T09:22:40;47.03;;;23.55;;
75435;SDS011;64014;53.432;14.534;2022-11-15T09:25:06;42.40;;;22.60;;
75435;SDS011;64014;53.432;14.534;2022-11-15T09:27:32;45.13;;;22.58;;
75435;SDS011;64014;53.432;14.534;2022-11-15T09:29:57;42.72;;;21.65;;
75435;SDS011;64014;53.432;14.534;2022-11-15T09:32:23;42.17;;;22.08;;
75435;SDS011;64014;53.432;14.534;2022-11-15T09:34:52;42.80;;;21.48;;
75435;SDS011;64014;53.432;14.534;2022-11-15T09:37:18;37.33;;;20.42;;
75435;SDS011;64014;53.432;14.534;2022-11-15T09:39:44;39.08;;;23.40;;
75435;SDS011;64014;53.432;14.534;2022-11-15T09:42:35;44.30;;;24.75;;
75435;SDS011;64014;53.432;14.534;2022-11-15T09:45:09;41.65;;;22.40;;
75435;SDS011;64014;53.432;14.534;2022-11-15T09:53:03;42.67;;;23.38;;
75435;SDS011;64014;53.432;14.534;2022-11-15T09:55:41;41.53;;;22.02;;
75435;SDS011;64014;53.432;14.534;2022-11-15T09:58:38;78.95;;;43.63;;
75435;SDS011;64014;53.432;14.534;2022-11-15T10:01:14;93.63;;;49.85;;
75435;SDS011;64014;53.432;14.534;2022-11-15T10:03:53;76.65;;;42.63;;
75435;SDS011;64014;53.432;14.534;2022-11-15T10:06:25;54.25;;;26.70;;
75435;SDS011;64014;53.432;14.534;2022-11-15T10:11:22;49.15;;;25.15;;
75435;SDS011;64014;53.432;14.534;2022-11-15T10:13:51;49.80;;;26.63;;
75435;SDS011;64014;53.432;14.534;2022-11-15T10:21:29;45.85;;;25.38;;
75435;SDS011;64014;53.432;14.534;2022-11-15T10:24:11;46.60;;;24.67;;
75435;SDS011;64014;53.432;14.534;2022-11-15T10:26:38;51.45;;;23.15;;
75435;SDS011;64014;53.432;14.534;2022-11-15T10:29:10;48.03;;;24.52;;
75435;SDS011;64014;53.432;14.534;2022-11-15T10:31:37;47.78;;;23.98;;
75435;SDS011;64014;53.432;14.534;2022-11-15T10:34:12;47.70;;;22.40;;
75435;SDS011;64014;53.432;14.534;2022-11-15T10:36:46;43.22;;;22.60;;
75435;SDS011;64014;53.432;14.534;2022-11-15T10:39:23;43.38;;;23.08;;
75435;SDS011;64014;53.432;14.534;2022-11-15T10:41:49;51.35;;;25.45;;
75435;SDS011;64014;53.432;14.534;2022-11-15T10:49:28;47.20;;;25.02;;
75435;SDS011;64014;53.432;14.534;2022-11-15T10:54:36;49.50;;;25.92;;
75435;SDS011;64014;53.432;14.534;2022-11-15T10:57:20;45.08;;;23.80;;
75435;SDS011;64014;53.432;14.534;2022-11-15T10:59:56;45.95;;;24.67;;
75435;SDS011;64014;53.432;14.534;2022-11-15T11:04:57;47.30;;;25.02;;
75435;SDS011;64014;53.432;14.534;2022-11-15T11:07:25;44.40;;;23.85;;
75435;SDS011;64014;53.432;14.534;2022-11-15T11:09:57;48.08;;;24.40;;
75435;SDS011;64014;53.432;14.534;2022-11-15T11:12:28;45.50;;;26.75;;
75435;SDS011;64014;53.432;14.534;2022-11-15T11:14:57;48.28;;;23.20;;
75435;SDS011;64014;53.432;14.534;2022-11-15T11:43:10;64.35;;;33.95;;
75435;SDS011;64014;53.432;14.534;2022-11-15T11:48:59;60.50;;;30.30;;
75435;SDS011;64014;53.432;14.534;2022-11-15T11:51:34;57.70;;;28.35;;
75435;SDS011;64014;53.432;14.534;2022-11-15T11:54:21;54.20;;;26.40;;
75435;SDS011;64014;53.432;14.534;2022-11-15T11:56:58;57.13;;;28.52;;
75435;SDS011;64014;53.432;14.534;2022-11-15T12:00:02;56.80;;;26.45;;
75435;SDS011;64014;53.432;14.534;2022-11-15T12:02:41;52.13;;;25.08;;
75435;SDS011;64014;53.432;14.534;2022-11-15T12:07:35;53.20;;;25.42;;
75435;SDS011;64014;53.432;14.534;2022-11-15T12:10:07;51.25;;;25.08;;
75435;SDS011;64014;53.432;14.534;2022-11-15T12:15:19;53.50;;;25.60;;
75435;SDS011;64014;53.432;14.534;2022-11-15T12:17:46;50.03;;;24.50;;
75435;SDS011;64014;53.432;14.534;2022-11-15T12:20:16;48.65;;;24.17;;
75435;SDS011;64014;53.432;14.534;2022-11-15T12:25:30;61.75;;;30.77;;
75435;SDS011;64014;53.432;14.534;2022-11-15T12:28:27;52.75;;;25.10;;
75435;SDS011;64014;53.432;14.534;2022-11-15T12:31:09;52.20;;;25.10;;
75435;SDS011;64014;53.432;14.534;2022-11-15T12:33:45;55.55;;;26.15;;
75435;SDS011;64014;53.432;14.534;2022-11-15T12:36:34;56.30;;;26.05;;
75435;SDS011;64014;53.432;14.534;2022-11-15T12:39:03;48.85;;;24.63;;
75435;SDS011;64014;53.432;14.534;2022-11-15T12:41:29;48.35;;;23.40;;
75435;SDS011;64014;53.432;14.534;2022-11-15T12:43:57;48.63;;;23.02;;
75435;SDS011;64014;53.432;14.534;2022-11-15T12:48:59;50.65;;;25.50;;
75435;SDS011;64014;53.432;14.534;2022-11-15T13:02:19;47.08;;;22.08;;
75435;SDS011;64014;53.432;14.534;2022-11-15T13:18:39;46.97;;;23.70;;
75435;SDS011;64014;53.432;14.534;2022-11-15T13:20:51;49.80;;;25.25;;
75435;SDS011;64014;53.432;14.534;2022-11-15T13:23:17;55.88;;;22.30;;
75435;SDS011;64014;53.432;14.534;2022-11-15T13:28:33;49.35;;;23.17;;
75435;SDS011;64014;53.432;14.534;2022-11-15T13:36:52;50.05;;;21.95;;
75435;SDS011;64014;53.432;14.534;2022-11-15T13:39:28;54.38;;;25.30;;
75435;SDS011;64014;53.432;14.534;2022-11-15T13:41:55;49.30;;;23.60;;
75435;SDS011;64014;53.432;14.534;2022-11-15T13:44:23;50.78;;;22.75;;
75435;SDS011;64014;53.432;14.534;2022-11-15T13:47:01;48.20;;;21.33;;
75435;SDS011;64014;53.432;14.534;2022-11-15T13:49:38;50.05;;;22.33;;
75435;SDS011;64014;53.432;14.534;2022-11-15T13:52:05;50.05;;;21.55;;
75435;SDS011;64014;53.432;14.534;2022-11-15T13:59:37;62.35;;;27.17;;
75435;SDS011;64014;53.432;14.534;2022-11-15T14:04:39;63.17;;;30.92;;
75435;SDS011;64014;53.432;14.534;2022-11-15T14:07:16;53.97;;;25.75;;
75435;SDS011;64014;53.432;14.534;2022-11-15T14:09:44;55.05;;;24.58;;
75435;SDS011;64014;53.432;14.534;2022-11-15T14:12:30;67.10;;;28.67;;
75435;SDS011;64014;53.432;14.534;2022-11-15T14:15:00;70.68;;;29.33;;
75435;SDS011;64014;53.432;14.534;2022-11-15T14:17:43;71.95;;;30.25;;
75435;SDS011;64014;53.432;14.534;2022-11-15T14:23:18;62.60;;;26.50;;
75435;SDS011;64014;53.432;14.534;2022-11-15T14:25:57;70.25;;;28.38;;
75435;SDS011;64014;53.432;14.534;2022-11-15T14:30:50;71.03;;;29.08;;
75435;SDS011;64014;53.432;14.534;2022-11-15T14:35:56;79.00;;;30.02;;
75435;SDS011;64014;53.432;14.534;2022-11-15T14:38:23;79.85;;;32.10;;
75435;SDS011;64014;53.432;14.534;2022-11-15T14:40:50;73.07;;;30.70;;
75435;SDS011;64014;53.432;14.534;2022-11-15T14:43:16;86.60;;;32.90;;
75435;SDS011;64014;53.432;14.534;2022-11-15T14:45:42;76.95;;;32.97;;
75435;SDS011;64014;53.432;14.534;2022-11-15T14:48:08;71.00;;;30.42;;
75435;SDS011;64014;53.432;14.534;2022-11-15T14:50:34;82.68;;;29.13;;
75435;SDS011;64014;53.432;14.534;2022-11-15T14:53:01;82.80;;;30.88;;
75435;SDS011;64014;53.432;14.534;2022-11-15T14:55:28;80.13;;;30.73;;
75435;SDS011;64014;53.432;14.534;2022-11-15T14:58:00;85.28;;;31.77;;
75435;SDS011;64014;53.432;14.534;2022-11-15T15:00:28;83.00;;;32.58;;
75435;SDS011;64014;53.432;14.534;2022-11-15T15:02:55;73.45;;;31.00;;
75435;SDS011;64014;53.432;14.534;2022-11-15T15:05:22;70.13;;;29.48;;
75435;SDS011;64014;53.432;14.534;2022-11-15T15:07:51;71.90;;;30.17;;
75435;SDS011;64014;53.432;14.534;2022-11-15T15:12:46;57.70;;;23.17;;
75435;SDS011;64014;53.432;14.534;2022-11-15T15:15:13;66.35;;;26.80;;
75435;SDS011;64014;53.432;14.534;2022-11-15T15:17:41;64.40;;;27.75;;
75435;SDS011;64014;53.432;14.534;2022-11-15T15:20:07;62.45;;;26.13;;
75435;SDS011;64014;53.432;14.534;2022-11-15T15:22:34;68.05;;;26.52;;
75435;SDS011;64014;53.432;14.534;2022-11-15T15:24:59;62.38;;;26.65;;
75435;SDS011;64014;53.432;14.534;2022-11-15T15:27:25;60.85;;;25.05;;
75435;SDS011;64014;53.432;14.534;2022-11-15T15:29:51;48.65;;;22.23;;
75435;SDS011;64014;53.432;14.534;2022-11-15T15:32:17;61.80;;;25.25;;
75435;SDS011;64014;53.432;14.534;2022-11-15T15:34:43;58.20;;;24.08;;
75435;SDS011;64014;53.432;14.534;2022-11-15T15:37:24;71.15;;;31.50;;
75435;SDS011;64014;53.432;14.534;2022-11-15T15:39:51;58.05;;;24.73;;
75435;SDS011;64014;53.432;14.534;2022-11-15T15:42:18;80.20;;;32.78;;
75435;SDS011;64014;53.432;14.534;2022-11-15T15:44:45;70.63;;;26.45;;
75435;SDS011;64014;53.432;14.534;2022-11-15T15:47:15;73.32;;;30.60;;
75435;SDS011;64014;53.432;14.534;2022-11-15T15:49:46;63.15;;;25.23;;
75435;SDS011;64014;53.432;14.534;2022-11-15T15:52:12;69.72;;;27.40;;
75435;SDS011;64014;53.432;14.534;2022-11-15T15:54:38;66.68;;;25.10;;
75435;SDS011;64014;53.432;14.534;2022-11-15T15:57:05;68.18;;;25.23;;
75435;SDS011;64014;53.432;14.534;2022-11-15T15:59:31;64.40;;;25.77;;
75435;SDS011;64014;53.432;14.534;2022-11-15T16:01:57;72.30;;;28.02;;
75435;SDS011;64014;53.432;14.534;2022-11-15T16:04:23;75.28;;;27.70;;
75435;SDS011;64014;53.432;14.534;2022-11-15T16:06:49;74.93;;;27.30;;
75435;SDS011;64014;53.432;14.534;2022-11-15T16:09:22;71.15;;;26.15;;
75435;SDS011;64014;53.432;14.534;2022-11-15T16:12:08;71.68;;;25.75;;
75435;SDS011;64014;53.432;14.534;2022-11-15T16:14:34;79.70;;;27.02;;
75435;SDS011;64014;53.432;14.534;2022-11-15T16:16:59;65.63;;;25.38;;
75435;SDS011;64014;53.432;14.534;2022-11-15T16:19:25;67.10;;;22.80;;
75435;SDS011;64014;53.432;14.534;2022-11-15T16:21:51;69.18;;;26.58;;
75435;SDS011;64014;53.432;14.534;2022-11-15T16:24:17;73.90;;;28.88;;
75435;SDS011;64014;53.432;14.534;2022-11-15T16:26:43;77.85;;;27.02;;
75435;SDS011;64014;53.432;14.534;2022-11-15T16:29:10;73.32;;;26.83;;
75435;SDS011;64014;53.432;14.534;2022-11-15T16:31:36;74.10;;;25.85;;
75435;SDS011;64014;53.432;14.534;2022-11-15T16:34:01;75.30;;;25.75;;
75435;SDS011;64014;53.432;14.534;2022-11-15T16:36:30;86.68;;;31.50;;
75435;SDS011;64014;53.432;14.534;2022-11-15T16:38:57;92.78;;;27.92;;
75435;SDS011;64014;53.432;14.534;2022-11-15T16:41:24;83.80;;;34.22;;
75435;SDS011;64014;53.432;14.534;2022-11-15T16:43:50;111.72;;;41.35;;
75435;SDS011;64014;53.432;14.534;2022-11-15T16:46:17;78.97;;;28.38;;
75435;SDS011;64014;53.432;14.534;2022-11-15T16:48:53;72.75;;;26.45;;
75435;SDS011;64014;53.432;14.534;2022-11-15T16:51:19;93.07;;;29.50;;
75435;SDS011;64014;53.432;14.534;2022-11-15T16:53:46;121.43;;;32.08;;
75435;SDS011;64014;53.432;14.534;2022-11-15T16:56:26;88.15;;;30.77;;
75435;SDS011;64014;53.432;14.534;2022-11-15T16:58:56;85.10;;;30.63;;
75435;SDS011;64014;53.432;14.534;2022-11-15T17:01:23;87.25;;;33.25;;
75435;SDS011;64014;53.432;14.534;2022-11-15T17:03:51;87.78;;;32.58;;
75435;SDS011;64014;53.432;14.534;2022-11-15T17:06:17;81.90;;;31.02;;
75435;SDS011;64014;53.432;14.534;2022-11-15T17:08:44;80.90;;;32.08;;
75435;SDS011;64014;53.432;14.534;2022-11-15T17:11:10;80.28;;;31.30;;
75435;SDS011;64014;53.432;14.534;2022-11-15T17:16:12;69.57;;;23.90;;
75435;SDS011;64014;53.432;14.534;2022-11-15T17:18:39;63.03;;;24.20;;
75435;SDS011;64014;53.432;14.534;2022-11-15T17:21:06;70.18;;;31.00;;
75435;SDS011;64014;53.432;14.534;2022-11-15T17:23:41;76.35;;;30.25;;
75435;SDS011;64014;53.432;14.534;2022-11-15T17:26:08;61.30;;;24.63;;
75435;SDS011;64014;53.432;14.534;2022-11-15T17:28:36;61.90;;;24.95;;
75435;SDS011;64014;53.432;14.534;2022-11-15T17:31:07;68.22;;;29.42;;
75435;SDS011;64014;53.432;14.534;2022-11-15T17:33:34;71.00;;;25.40;;
75435;SDS011;64014;53.432;14.534;2022-11-15T17:36:02;74.43;;;26.83;;
75435;SDS011;64014;53.432;14.534;2022-11-15T17:38:30;75.05;;;25.63;;
75435;SDS011;64014;53.432;14.534;2022-11-15T17:41:03;64.47;;;24.50;;
75435;SDS011;64014;53.432;14.534;2022-11-15T17:43:33;60.92;;;24.98;;
75435;SDS011;64014;53.432;14.534;2022-11-15T17:46:01;65.32;;;25.35;;
75435;SDS011;64014;53.432;14.534;2022-11-15T17:48:30;50.05;;;20.67;;
75435;SDS011;64014;53.432;14.534;2022-11-15T17:51:05;48.42;;;21.02;;
75435;SDS011;64014;53.432;14.534;2022-11-15T17:53:33;51.38;;;20.90;;
75435;SDS011;64014;53.432;14.534;2022-11-15T17:56:05;54.20;;;21.63;;
75435;SDS011;64014;53.432;14.534;2022-11-15T17:58:32;53.95;;;20.42;;
75435;SDS011;64014;53.432;14.534;2022-11-15T18:03:36;51.22;;;19.90;;
75435;SDS011;64014;53.432;14.534;2022-11-15T18:06:06;50.28;;;20.60;;
75435;SDS011;64014;53.432;14.534;2022-11-15T18:08:36;53.65;;;18.83;;
75435;SDS011;64014;53.432;14.534;2022-11-15T18:13:39;52.88;;;17.95;;
75435;SDS011;64014;53.432;14.534;2022-11-15T18:16:11;47.85;;;18.63;;
75435;SDS011;64014;53.432;14.534;2022-11-15T18:18:40;49.13;;;19.40;;
75435;SDS011;64014;53.432;14.534;2022-11-15T18:21:11;61.90;;;19.80;;
75435;SDS011;64014;53.432;14.534;2022-11-15T18:23:38;56.58;;;22.80;;
75435;SDS011;64014;53.432;14.534;2022-11-15T18:26:05;57.90;;;22.17;;
75435;SDS011;64014;53.432;14.534;2022-11-15T18:28:34;47.22;;;18.45;;
75435;SDS011;64014;53.432;14.534;2022-11-15T18:31:02;55.88;;;22.58;;
75435;SDS011;64014;53.432;14.534;2022-11-15T18:33:32;54.97;;;21.55;;
75435;SDS011;64014;53.432;14.534;2022-11-15T18:36:08;54.60;;;21.55;;
75435;SDS011;64014;53.432;14.534;2022-11-15T18:38:36;54.50;;;23.92;;
75435;SDS011;64014;53.432;14.534;2022-11-15T18:41:05;57.55;;;20.38;;
75435;SDS011;64014;53.432;14.534;2022-11-15T18:43:41;55.60;;;18.33;;
75435;SDS011;64014;53.432;14.534;2022-11-15T18:46:13;47.85;;;16.55;;
75435;SDS011;64014;53.432;14.534;2022-11-15T18:48:40;49.00;;;19.45;;
75435;SDS011;64014;53.432;14.534;2022-11-15T18:51:08;57.20;;;21.05;;
75435;SDS011;64014;53.432;14.534;2022-11-15T18:53:35;54.47;;;21.33;;
75435;SDS011;64014;53.432;14.534;2022-11-15T18:56:02;57.78;;;20.05;;
75435;SDS011;64014;53.432;14.534;2022-11-15T18:58:32;61.40;;;21.33;;
75435;SDS011;64014;53.432;14.534;2022-11-15T19:01:05;60.13;;;21.92;;
75435;SDS011;64014;53.432;14.534;2022-11-15T19:03:34;55.03;;;18.52;;
75435;SDS011;64014;53.432;14.534;2022-11-15T19:06:03;53.22;;;19.10;;
75435;SDS011;64014;53.432;14.534;2022-11-15T19:08:34;50.15;;;19.00;;
75435;SDS011;64014;53.432;14.534;2022-11-15T19:11:11;51.53;;;19.55;;
75435;SDS011;64014;53.432;14.534;2022-11-15T19:13:42;50.08;;;18.55;;
75435;SDS011;64014;53.432;14.534;2022-11-15T19:16:11;58.20;;;19.50;;
75435;SDS011;64014;53.432;14.534;2022-11-15T19:18:38;55.75;;;19.52;;
75435;SDS011;64014;53.432;14.534;2022-11-15T19:21:06;56.03;;;18.77;;
75435;SDS011;64014;53.432;14.534;2022-11-15T19:23:33;61.90;;;21.45;;
75435;SDS011;64014;53.432;14.534;2022-11-15T19:26:01;58.13;;;19.63;;
75435;SDS011;64014;53.432;14.534;2022-11-15T19:28:28;58.88;;;21.25;;
75435;SDS011;64014;53.432;14.534;2022-11-15T19:33:37;51.85;;;18.77;;
75435;SDS011;64014;53.432;14.534;2022-11-15T19:36:05;50.90;;;18.35;;
75435;SDS011;64014;53.432;14.534;2022-11-15T19:38:37;46.13;;;16.50;;
75435;SDS011;64014;53.432;14.534;2022-11-15T19:41:04;56.65;;;20.50;;
75435;SDS011;64014;53.432;14.534;2022-11-15T19:43:32;50.95;;;18.38;;
75435;SDS011;64014;53.432;14.534;2022-11-15T19:45:58;53.70;;;18.50;;
75435;SDS011;64014;53.432;14.534;2022-11-15T19:48:26;47.10;;;17.70;;
75435;SDS011;64014;53.432;14.534;2022-11-15T19:50:53;48.67;;;18.25;;
75435;SDS011;64014;53.432;14.534;2022-11-15T19:53:19;51.17;;;17.83;;
75435;SDS011;64014;53.432;14.534;2022-11-15T19:55:54;54.55;;;19.63;;
75435;SDS011;64014;53.432;14.534;2022-11-15T19:58:25;52.75;;;18.63;;
75435;SDS011;64014;53.432;14.534;2022-11-15T20:01:15;58.55;;;20.63;;
75435;SDS011;64014;53.432;14.534;2022-11-15T20:03:41;49.55;;;17.55;;
75435;SDS011;64014;53.432;14.534;2022-11-15T20:06:09;48.40;;;17.27;;
75435;SDS011;64014;53.432;14.534;2022-11-15T20:08:37;48.42;;;16.05;;
75435;SDS011;64014;53.432;14.534;2022-11-15T20:11:03;51.10;;;17.42;;
75435;SDS011;64014;53.432;14.534;2022-11-15T20:13:30;53.35;;;19.23;;
75435;SDS011;64014;53.432;14.534;2022-11-15T20:15:56;49.92;;;18.40;;
75435;SDS011;64014;53.432;14.534;2022-11-15T20:18:22;45.70;;;16.20;;
75435;SDS011;64014;53.432;14.534;2022-11-15T20:20:49;47.55;;;16.33;;
75435;SDS011;64014;53.432;14.534;2022-11-15T20:23:15;50.67;;;17.73;;
75435;SDS011;64014;53.432;14.534;2022-11-15T20:25:45;50.35;;;18.15;;
75435;SDS011;64014;53.432;14.534;2022-11-15T20:28:15;50.05;;;17.05;;
75435;SDS011;64014;53.432;14.534;2022-11-15T20:30:44;44.40;;;16.45;;
75435;SDS011;64014;53.432;14.534;2022-11-15T20:33:11;42.50;;;14.85;;
75435;SDS011;64014;53.432;14.534;2022-11-15T20:35:38;54.78;;;17.75;;
75435;SDS011;64014;53.432;14.534;2022-11-15T20:38:05;47.20;;;15.95;;
75435;SDS011;64014;53.432;14.534;2022-11-15T20:40:31;47.00;;;17.95;;
75435;SDS011;64014;53.432;14.534;2022-11-15T20:42:57;49.17;;;16.20;;
75435;SDS011;64014;53.432;14.534;2022-11-15T20:45:23;47.60;;;17.17;;
75435;SDS011;64014;53.432;14.534;2022-11-15T20:47:49;41.88;;;15.68;;
75435;SDS011;64014;53.432;14.534;2022-11-15T20:50:15;40.50;;;15.30;;
75435;SDS011;64014;53.432;14.534;2022-11-15T20:52:41;42.67;;;15.07;;
75435;SDS011;64014;53.432;14.534;2022-11-15T20:55:07;42.45;;;15.48;;
75435;SDS011;64014;53.432;14.534;2022-11-15T20:57:33;43.15;;;15.30;;
75435;SDS011;64014;53.432;14.534;2022-11-15T20:59:59;40.97;;;14.27;;
75435;SDS011;64014;53.432;14.534;2022-11-15T21:02:24;40.22;;;15.75;;
75435;SDS011;64014;53.432;14.534;2022-11-15T21:04:50;41.10;;;15.80;;
75435;SDS011;64014;53.432;14.534;2022-11-15T21:07:16;39.50;;;14.07;;
75435;SDS011;64014;53.432;14.534;2022-11-15T21:09:42;37.97;;;14.02;;
75435;SDS011;64014;53.432;14.534;2022-11-15T21:12:26;43.45;;;15.55;;
75435;SDS011;64014;53.432;14.534;2022-11-15T21:14:52;41.65;;;15.80;;
75435;SDS011;64014;53.432;14.534;2022-11-15T21:17:18;36.75;;;14.15;;
75435;SDS011;64014;53.432;14.534;2022-11-15T21:19:44;33.47;;;13.30;;
75435;SDS011;64014;53.432;14.534;2022-11-15T21:22:11;35.08;;;13.23;;
75435;SDS011;64014;53.432;14.534;2022-11-15T21:24:38;35.60;;;12.95;;
75435;SDS011;64014;53.432;14.534;2022-11-15T21:27:04;37.42;;;13.13;;
75435;SDS011;64014;53.432;14.534;2022-11-15T21:29:30;38.25;;;14.98;;
75435;SDS011;64014;53.432;14.534;2022-11-15T21:32:03;33.75;;;13.90;;
75435;SDS011;64014;53.432;14.534;2022-11-15T21:34:33;33.65;;;13.07;;
75435;SDS011;64014;53.432;14.534;2022-11-15T21:37:00;38.97;;;14.00;;
75435;SDS011;64014;53.432;14.534;2022-11-15T21:39:25;34.22;;;12.90;;
75435;SDS011;64014;53.432;14.534;2022-11-15T21:41:51;34.20;;;13.05;;
75435;SDS011;64014;53.432;14.534;2022-11-15T21:44:17;33.63;;;11.88;;
75435;SDS011;64014;53.432;14.534;2022-11-15T21:46:43;30.73;;;14.07;;
75435;SDS011;64014;53.432;14.534;2022-11-15T21:49:09;35.03;;;13.02;;
75435;SDS011;64014;53.432;14.534;2022-11-15T21:51:35;34.95;;;13.32;;
75435;SDS011;64014;53.432;14.534;2022-11-15T21:54:01;35.35;;;13.55;;
75435;SDS011;64014;53.432;14.534;2022-11-15T21:56:27;35.50;;;13.40;;
75435;SDS011;64014;53.432;14.534;2022-11-15T21:58:54;31.20;;;11.65;;
75435;SDS011;64014;53.432;14.534;2022-11-15T22:01:21;37.53;;;14.00;;
75435;SDS011;64014;53.432;14.534;2022-11-15T22:04:06;31.67;;;13.65;;
75435;SDS011;64014;53.432;14.534;2022-11-15T22:06:33;38.63;;;14.05;;
75435;SDS011;64014;53.432;14.534;2022-11-15T22:08:59;32.72;;;12.98;;
75435;SDS011;64014;53.432;14.534;2022-11-15T22:11:25;31.90;;;13.82;;
75435;SDS011;64014;53.432;14.534;2022-11-15T22:13:51;36.95;;;13.93;;
75435;SDS011;64014;53.432;14.534;2022-11-15T22:16:17;31.75;;;12.23;;
75435;SDS011;64014;53.432;14.534;2022-11-15T22:18:43;32.58;;;13.48;;
75435;SDS011;64014;53.432;14.534;2022-11-15T22:21:09;31.40;;;12.50;;
75435;SDS011;64014;53.432;14.534;2022-11-15T22:23:37;34.83;;;13.15;;
75435;SDS011;64014;53.432;14.534;2022-11-15T22:26:06;37.15;;;13.90;;
75435;SDS011;64014;53.432;14.534;2022-11-15T22:28:43;33.00;;;12.15;;
75435;SDS011;64014;53.432;14.534;2022-11-15T22:31:09;34.50;;;12.77;;
75435;SDS011;64014;53.432;14.534;2022-11-15T22:33:35;31.95;;;12.93;;
75435;SDS011;64014;53.432;14.534;2022-11-15T22:36:01;30.25;;;12.70;;
75435;SDS011;64014;53.432;14.534;2022-11-15T22:38:29;35.42;;;12.80;;
75435;SDS011;64014;53.432;14.534;2022-11-15T22:40:55;33.35;;;12.73;;
75435;SDS011;64014;53.432;14.534;2022-11-15T22:43:22;33.90;;;14.52;;
75435;SDS011;64014;53.432;14.534;2022-11-15T22:45:53;37.30;;;14.75;;
75435;SDS011;64014;53.432;14.534;2022-11-15T22:48:20;41.15;;;16.50;;
75435;SDS011;64014;53.432;14.534;2022-11-15T22:50:51;34.55;;;14.65;;